Ash Hill, North Carolina
Current Conditions -  °F | °C
As of 9:15 PM on Friday 24 Oct 2014 (Local Time) from KMWK Reporting Station
Clear Clear  
Wind Chill: 56°   Ceiling: Unl
Heat Index: 56°   Visibility: 10mi
Dew Point: 40°   Wind: 0mph
Humidity: 55%   Direction: NA
Pressure: 30.03"   Gusts: NA
Location:  36.3687°N, 80.588°W
Report Text: KMWK 250115Z AUTO 00000KT 10SM CLR 14/05 A3003 RMK AO2 T01350047
Loading
Personal Weather Stations






























Interactive Weather Map
Tropical Storm Tracking
New forecast layout! Learn more

10-Day Weather Forecast

Advertisements
Track Severe Weather on mobile